Time;durP1;ratioP1;P1;durP2;ratioP2;P2;SDS_P1;SDS_P2;PMS_P1;PMS_P2;Temp;Humidity;BMP_temperature;BMP_pressure;BME280_temperature;BME280_humidity;BME280_pressure;Samples;Min_cycle;Max_cycle;Signal;HPM_P1;HPM_P2
2021/07/23 00:00:09;;;;;;;14.90;10.43;;;;;;;17.73;94.84;100581.50;5021333;28;20422;-71
2021/07/23 00:02:53;;;;;;;14.38;9.27;;;;;;;17.70;95.35;100588.09;5035400;28;20099;-71
2021/07/23 00:05:37;;;;;;;14.23;10.00;;;;;;;17.67;95.66;100588.47;5036004;28;20048;-71
2021/07/23 00:08:21;;;;;;;17.35;9.82;;;;;;;17.62;96.28;100590.84;5020987;28;20126;-71
2021/07/23 00:11:05;;;;;;;14.95;10.00;;;;;;;17.58;96.83;100591.38;5020008;28;20067;-71
2021/07/23 00:13:49;;;;;;;14.23;9.88;;;;;;;17.53;97.75;100591.97;5020821;28;20056;-71
2021/07/23 00:16:34;;;;;;;16.40;10.13;;;;;;;17.40;97.51;100594.41;5020866;28;20533;-70
2021/07/23 00:19:18;;;;;;;13.45;9.02;;;;;;;17.37;97.95;100586.69;5020748;28;20153;-71
2021/07/23 00:22:02;;;;;;;12.35;9.18;;;;;;;17.37;98.10;100584.00;5035900;28;20049;-71
2021/07/23 00:24:46;;;;;;;14.88;9.85;;;;;;;17.34;99.04;100578.94;5020658;28;20137;-68
2021/07/23 00:27:30;;;;;;;16.42;10.02;;;;;;;17.36;99.21;100584.16;5020904;28;20052;-71
2021/07/23 00:30:14;;;;;;;15.27;9.65;;;;;;;17.34;99.04;100587.03;5034877;28;20048;-71
2021/07/23 00:33:00;;;;;;;14.10;9.82;;;;;;;17.28;99.03;100585.03;5034859;28;20053;-71
2021/07/23 00:35:44;;;;;;;17.60;9.57;;;;;;;17.23;99.44;100584.75;5034408;28;20080;-71
2021/07/23 00:38:28;;;;;;;12.95;9.63;;;;;;;17.14;99.89;100585.81;5034733;28;20099;-72
2021/07/23 00:41:12;;;;;;;13.07;8.82;;;;;;;17.06;100.00;100580.47;5034698;28;20039;-71
2021/07/23 00:43:56;;;;;;;15.98;9.80;;;;;;;17.01;100.00;100585.53;5020860;28;20438;-72
2021/07/23 00:46:41;;;;;;;14.63;9.07;;;;;;;16.96;100.00;100579.84;5035215;28;20625;-72
2021/07/23 00:49:25;;;;;;;13.70;9.43;;;;;;;16.91;100.00;100584.91;5021325;28;20106;-71
2021/07/23 00:52:09;;;;;;;13.98;9.65;;;;;;;16.88;100.00;100585.28;5019782;28;20076;-71
2021/07/23 00:54:53;;;;;;;16.33;9.77;;;;;;;16.84;100.00;100578.59;5020295;28;20091;-71
2021/07/23 00:57:37;;;;;;;16.30;9.38;;;;;;;16.82;100.00;100569.84;5034275;28;20195;-70
2021/07/23 01:00:21;;;;;;;;;;;;;;;16.79;100.00;100575.56;5034530;28;20095;-68
2021/07/23 01:03:05;;;;;;;16.47;10.17;;;;;;;16.76;100.00;100572.38;5020113;28;19963;-70
2021/07/23 01:05:50;;;;;;;15.52;10.35;;;;;;;16.73;100.00;100576.28;5020225;28;20402;-70
2021/07/23 01:08:35;;;;;;;15.90;9.70;;;;;;;16.71;100.00;100569.41;5034264;28;20092;-71
2021/07/23 01:11:18;;;;;;;13.82;9.35;;;;;;;16.68;100.00;100569.75;5033643;28;20080;-71
2021/07/23 01:14:03;;;;;;;17.80;10.00;;;;;;;16.66;100.00;100572.63;5019583;28;20056;-71
2021/07/23 01:16:48;;;;;;;13.13;9.20;;;;;;;16.63;100.00;100564.03;5033657;28;20521;-71
2021/07/23 01:19:37;;;;;;;14.98;9.30;;;;;;;16.62;100.00;100562.38;5034133;28;20124;-71
2021/07/23 01:22:25;;;;;;;15.05;9.35;;;;;;;16.63;100.00;100559.50;5019581;28;20128;-71
2021/07/23 01:25:10;;;;;;;13.02;9.18;;;;;;;16.66;100.00;100561.84;5033692;28;20071;-71
2021/07/23 01:27:55;;;;;;;14.05;9.43;;;;;;;16.72;100.00;100558.47;5019918;28;20094;-71
2021/07/23 01:30:39;;;;;;;16.35;9.48;;;;;;;16.76;100.00;100558.94;5033292;28;20052;-71
2021/07/23 01:33:23;;;;;;;13.48;9.05;;;;;;;16.78;100.00;100557.75;5034250;28;20064;-71
2021/07/23 01:36:07;;;;;;;13.07;9.18;;;;;;;16.79;100.00;100558.59;5033234;28;20052;-71
2021/07/23 01:38:52;;;;;;;16.30;9.65;;;;;;;16.78;100.00;100560.44;5033689;28;20098;-71
2021/07/23 01:41:36;;;;;;;14.10;9.32;;;;;;;16.75;100.00;100547.34;5019071;28;20072;-71
2021/07/23 01:44:21;;;;;;;14.70;9.35;;;;;;;16.76;100.00;100553.53;5034109;28;20111;-71
2021/07/23 01:47:04;;;;;;;16.13;9.25;;;;;;;16.78;100.00;100554.22;5034250;28;20088;-71
2021/07/23 01:49:48;;;;;;;11.88;8.93;;;;;;;16.76;100.00;100556.22;5033452;28;20047;-70
2021/07/23 01:52:33;;;;;;;12.98;9.02;;;;;;;16.76;100.00;100550.84;5033751;28;20560;-71
2021/07/23 01:55:17;;;;;;;14.38;9.45;;;;;;;16.73;100.00;100549.38;5033097;28;20056;-71
2021/07/23 01:58:01;;;;;;;12.88;9.25;;;;;;;16.72;100.00;100547.69;5032805;28;20057;-71
2021/07/23 02:00:44;;;;;;;12.60;8.95;;;;;;;16.70;100.00;100547.00;5033008;28;20075;-71
2021/07/23 02:03:28;;;;;;;16.50;9.63;;;;;;;16.68;100.00;100546.34;5032763;28;20055;-71
2021/07/23 02:06:12;;;;;;;15.05;9.70;;;;;;;16.63;100.00;100546.06;5032960;28;20094;-71
2021/07/23 02:08:56;;;;;;;13.15;9.73;;;;;;;16.61;100.00;100541.84;5018669;28;20128;-71
2021/07/23 02:11:40;;;;;;;12.60;9.00;;;;;;;16.58;100.00;100545.72;5033723;28;20052;-71
2021/07/23 02:14:28;;;;;;;11.93;9.02;;;;;;;16.58;100.00;100545.72;5033511;28;20092;-71
2021/07/23 02:17:13;;;;;;;15.30;9.20;;;;;;;16.55;100.00;100535.31;5032780;28;20083;-71
2021/07/23 02:20:00;;;;;;;14.63;9.73;;;;;;;16.51;100.00;100539.41;5032474;28;20100;-71
2021/07/23 02:22:44;;;;;;;13.27;8.98;;;;;;;16.48;100.00;100528.97;5032611;28;20517;-71
2021/07/23 02:25:30;;;;;;;14.60;9.32;;;;;;;16.47;100.00;100529.97;5018749;28;20059;-71
2021/07/23 02:28:14;;;;;;;14.68;9.75;;;;;;;16.45;100.00;100532.00;5032395;28;20052;-71
2021/07/23 02:30:57;;;;;;;10.98;8.57;;;;;;;16.45;100.00;100536.53;5018468;28;20410;-71
2021/07/23 02:33:42;;;;;;;13.35;9.40;;;;;;;16.42;100.00;100536.91;5031927;28;20102;-71
2021/07/23 02:36:26;;;;;;;12.82;8.57;;;;;;;16.37;100.00;100526.66;5032526;28;20072;-71
2021/07/23 02:39:10;;;;;;;13.68;9.27;;;;;;;16.33;100.00;100528.00;5032501;28;20055;-71
2021/07/23 02:41:53;;;;;;;11.23;8.38;;;;;;;16.30;100.00;100528.34;5032154;28;20047;-71
2021/07/23 02:44:38;;;;;;;11.85;8.70;;;;;;;16.27;100.00;100530.56;5018752;28;20091;-71
2021/07/23 02:47:21;;;;;;;14.45;9.50;;;;;;;16.25;100.00;100528.03;5032065;28;20413;-71
2021/07/23 02:50:06;;;;;;;14.90;9.75;;;;;;;16.21;100.00;100521.34;5033412;28;20049;-71
2021/07/23 02:52:50;;;;;;;15.30;9.50;;;;;;;16.23;100.00;100519.31;5031952;28;20115;-71
2021/07/23 02:55:34;;;;;;;14.43;9.55;;;;;;;16.22;100.00;100517.63;5039232;22;20084;-66
2021/07/23 02:58:18;;;;;;;11.85;9.38;;;;;;;16.22;100.00;100522.16;5013376;28;20092;-66
2021/07/23 03:01:04;;;;;;;13.18;9.30;;;;;;;16.20;100.00;100508.03;5013354;28;20080;-67
2021/07/23 03:03:48;;;;;;;15.43;9.25;;;;;;;16.16;100.00;100510.25;5014206;28;20048;-66
2021/07/23 03:06:32;;;;;;;13.93;9.02;;;;;;;16.09;100.00;100509.25;5032226;28;20446;-65
2021/07/23 03:09:16;;;;;;;15.13;9.20;;;;;;;16.04;100.00;100508.94;5018208;28;20436;-66
2021/07/23 03:11:59;;;;;;;14.18;8.95;;;;;;;15.99;100.00;100505.09;5032828;28;20084;-66
2021/07/23 03:14:43;;;;;;;13.88;9.05;;;;;;;15.98;100.00;100504.25;5032835;28;20513;-65
2021/07/23 03:17:27;;;;;;;12.23;9.32;;;;;;;15.92;100.00;100504.94;5031949;28;20061;-67
2021/07/23 03:20:12;;;;;;;14.02;8.75;;;;;;;15.90;100.00;100496.22;5032439;28;20048;-67
2021/07/23 03:22:56;;;;;;;14.50;9.48;;;;;;;15.88;100.00;100498.22;5031943;28;20043;-66
2021/07/23 03:25:40;;;;;;;11.52;8.32;;;;;;;15.85;100.00;100498.56;5031826;28;20091;-67
2021/07/23 03:28:24;;;;;;;14.65;9.32;;;;;;;15.80;100.00;100492.03;5032127;28;20051;-66
2021/07/23 03:31:14;;;;;;;12.20;8.77;;;;;;;15.76;100.00;100491.53;5031715;28;20073;-64
2021/07/23 03:33:58;;;;;;;13.15;9.30;;;;;;;15.73;100.00;100489.19;5032766;28;20045;-66
2021/07/23 03:36:42;;;;;;;;;;;;;;;15.69;100.00;100498.63;5018603;28;20055;-66
2021/07/23 03:39:26;;;;;;;15.30;10.02;;;;;;;15.63;100.00;100492.25;5032042;28;19919;-66
2021/07/23 03:42:10;;;;;;;12.60;8.80;;;;;;;15.61;100.00;100500.47;5031715;28;20053;-66
2021/07/23 03:44:54;;;;;;;16.83;10.07;;;;;;;15.62;100.00;100504.84;5033193;28;20111;-66
2021/07/23 03:47:38;;;;;;;15.30;9.52;;;;;;;15.61;100.00;100500.47;5036596;28;20072;-63
2021/07/23 03:50:22;;;;;;;14.88;9.95;;;;;;;15.58;100.00;100498.97;5035513;28;20083;-66
2021/07/23 03:53:06;;;;;;;12.98;9.27;;;;;;;15.56;100.00;100508.22;5035593;28;20045;-66
2021/07/23 03:55:50;;;;;;;13.05;8.77;;;;;;;15.56;100.00;100502.00;5035102;28;20048;-66
2021/07/23 03:58:36;;;;;;;17.55;10.00;;;;;;;15.57;100.00;100501.84;5021496;28;20099;-66
2021/07/23 04:01:20;;;;;;;13.25;9.73;;;;;;;15.56;100.00;100505.53;5021620;28;20056;-66
2021/07/23 04:04:04;;;;;;;15.45;9.43;;;;;;;15.55;100.00;100500.31;5035978;28;20068;-66
2021/07/23 04:06:48;;;;;;;15.45;10.68;;;;;;;15.51;100.00;100507.88;5035943;28;20516;-66
2021/07/23 04:09:32;;;;;;;12.50;9.20;;;;;;;15.54;100.00;100506.72;5035967;28;20564;-66
2021/07/23 04:12:15;;;;;;;12.85;8.73;;;;;;;15.54;100.00;100506.72;5021146;28;20522;-66
2021/07/23 04:15:01;;;;;;;15.93;9.05;;;;;;;15.54;100.00;100509.41;5034760;28;20080;-67
2021/07/23 04:17:47;;;;;;;14.13;10.10;;;;;;;15.54;100.00;100501.34;5034746;28;20501;-66
2021/07/23 04:20:31;;;;;;;11.52;8.90;;;;;;;15.53;100.00;100510.41;5035025;28;20059;-67
2021/07/23 04:23:15;;;;;;;13.13;9.32;;;;;;;15.56;100.00;100507.38;5036287;28;20059;-67
2021/07/23 04:25:59;;;;;;;15.38;9.00;;;;;;;15.60;100.00;100519.47;5020576;28;20128;-66
2021/07/23 04:28:43;;;;;;;14.05;9.75;;;;;;;15.62;100.00;100512.06;5020929;28;20114;-66
2021/07/23 04:31:27;;;;;;;13.32;9.35;;;;;;;15.64;100.00;100511.72;5035743;28;20091;-67
2021/07/23 04:34:11;;;;;;;15.30;8.65;;;;;;;15.68;100.00;100514.91;5035639;28;20418;-66
2021/07/23 04:36:58;;;;;;;11.75;9.48;;;;;;;15.71;100.00;100512.72;5020517;28;20052;-67
2021/07/23 04:39:42;;;;;;;16.10;9.50;;;;;;;15.75;100.00;100522.13;5035650;28;20132;-67
2021/07/23 04:42:26;;;;;;;12.55;8.65;;;;;;;15.82;100.00;100519.59;5034376;28;20152;-67
2021/07/23 04:45:11;;;;;;;12.82;9.13;;;;;;;15.88;100.00;100514.34;5035772;28;20060;-64
2021/07/23 04:47:55;;;;;;;14.10;9.07;;;;;;;15.96;100.00;100522.41;5034290;28;20047;-67
2021/07/23 04:50:39;;;;;;;14.50;9.05;;;;;;;16.01;100.00;100522.75;5034457;28;20052;-66
2021/07/23 04:53:23;;;;;;;11.07;8.45;;;;;;;16.07;100.00;100519.34;5035420;28;20056;-66
2021/07/23 04:56:07;;;;;;;;;;;;;;;16.14;100.00;100525.72;5034008;28;20111;-66
2021/07/23 04:58:51;;;;;;;14.93;9.30;;;;;;;16.21;100.00;100521.34;5035373;28;19919;-66
2021/07/23 05:01:35;;;;;;;13.30;9.15;;;;;;;16.32;100.00;100522.78;5034011;28;20486;-67
2021/07/23 05:04:19;;;;;;;14.57;10.73;;;;;;;16.44;100.00;100526.78;5034180;28;20477;-66
2021/07/23 05:07:03;;;;;;;15.43;10.88;;;;;;;16.53;100.00;100523.06;5035348;28;20091;-66
2021/07/23 05:09:50;;;;;;;18.73;10.80;;;;;;;16.64;100.00;100523.50;5034500;28;20134;-67
2021/07/23 05:12:34;;;;;;;15.38;11.13;;;;;;;16.78;100.00;100530.00;5034116;28;20097;-67
2021/07/23 05:15:18;;;;;;;12.15;8.75;;;;;;;16.89;100.00;100525.03;5034011;28;20059;-65
2021/07/23 05:18:03;;;;;;;17.88;9.95;;;;;;;17.00;100.00;100523.78;5034960;28;20142;-67
2021/07/23 05:20:47;;;;;;;15.77;10.30;;;;;;;17.11;99.95;100520.69;5034157;28;20509;-66
2021/07/23 05:23:34;;;;;;;19.92;10.82;;;;;;;17.21;98.72;100521.28;5033818;28;20052;-66
2021/07/23 05:26:18;;;;;;;14.95;9.80;;;;;;;17.31;98.05;100524.56;5033532;28;20131;-67
2021/07/23 05:29:07;;;;;;;14.15;9.55;;;;;;;17.41;97.67;100526.00;5035018;28;20059;-67
2021/07/23 05:31:51;;;;;;;19.70;10.80;;;;;;;17.51;96.18;100523.06;5033475;28;20052;-67
2021/07/23 05:34:35;;;;;;;18.10;10.30;;;;;;;17.61;95.56;100524.47;5033297;28;20044;-67
2021/07/23 05:37:18;;;;;;;16.50;10.70;;;;;;;17.71;94.88;100527.75;5033264;28;20052;-67
2021/07/23 05:40:03;;;;;;;16.67;10.30;;;;;;;17.80;94.14;100521.25;5033531;28;20056;-66
2021/07/23 05:42:47;;;;;;;19.85;11.38;;;;;;;17.91;94.21;100526.19;5034687;28;20048;-65
2021/07/23 05:45:31;;;;;;;13.98;9.82;;;;;;;18.01;94.06;100525.94;5019383;28;20179;-66
2021/07/23 05:48:15;;;;;;;15.20;10.57;;;;;;;18.09;93.94;100515.88;5034271;28;20557;-67
2021/07/23 05:51:02;;;;;;;14.63;9.82;;;;;;;18.23;93.60;100519.59;5034365;28;20091;-66
2021/07/23 05:53:45;;;;;;;15.45;10.90;;;;;;;18.34;93.77;100516.47;5034210;28;20055;-67
2021/07/23 05:56:29;;;;;;;14.07;10.70;;;;;;;18.42;93.38;100521.75;5033950;28;20521;-65
2021/07/23 05:59:13;;;;;;;20.67;11.25;;;;;;;18.53;93.04;100519.41;5033961;28;20103;-66
2021/07/23 06:01:58;;;;;;;14.68;11.00;;;;;;;18.60;93.12;100517.63;5033141;28;20044;-67
2021/07/23 06:04:41;;;;;;;17.88;11.60;;;;;;;18.71;92.65;100514.44;5033819;28;20064;-67
2021/07/23 06:07:25;;;;;;;16.90;11.32;;;;;;;18.81;92.67;100514.97;5033488;28;20091;-66
2021/07/23 06:10:09;;;;;;;16.38;11.38;;;;;;;18.90;93.01;100516.53;5032510;28;20044;-67
2021/07/23 06:12:54;;;;;;;27.13;12.05;;;;;;;19.02;91.74;100514.97;5018684;28;20127;-66
2021/07/23 06:15:37;;;;;;;19.77;11.57;;;;;;;19.10;90.81;100520.25;5032632;28;20521;-67
2021/07/23 06:18:21;;;;;;;27.42;12.52;;;;;;;19.18;90.70;100517.47;5033553;28;20076;-68
2021/07/23 06:21:09;;;;;;;20.92;11.68;;;;;;;19.29;89.13;100508.84;5032911;28;20086;-67
2021/07/23 06:23:53;;;;;;;23.75;11.88;;;;;;;19.36;88.90;100510.56;5032362;28;20048;-67
2021/07/23 06:26:37;;;;;;;20.35;12.48;;;;;;;19.45;88.76;100505.84;5032484;28;20052;-67
2021/07/23 06:29:22;;;;;;;18.35;11.88;;;;;;;19.55;89.37;100514.47;5032355;28;20052;-66
2021/07/23 06:32:06;;;;;;;22.35;12.60;;;;;;;19.63;89.24;100511.63;5018759;28;20076;-67
2021/07/23 06:34:50;;;;;;;21.73;13.32;;;;;;;19.75;88.23;100499.22;5032411;28;20183;-67
2021/07/23 06:37:34;;;;;;;26.85;13.02;;;;;;;19.83;87.59;100507.19;5033637;28;20091;-68
2021/07/23 06:40:18;;;;;;;21.70;13.35;;;;;;;19.90;86.63;100508.09;5032294;28;20055;-67
2021/07/23 06:43:02;;;;;;;19.42;12.52;;;;;;;19.95;86.05;100511.03;5033563;28;20068;-68
2021/07/23 06:45:56;;;;;;;24.63;13.82;;;;;;;20.03;85.45;100508.16;5032155;28;20102;-68
2021/07/23 06:48:40;;;;;;;26.40;13.88;;;;;;;20.07;85.00;100506.75;5032238;28;20094;-67
2021/07/23 06:51:23;;;;;;;19.70;12.07;;;;;;;20.10;85.17;100512.59;5033097;28;20052;-67
2021/07/23 06:54:07;;;;;;;20.23;11.60;;;;;;;20.27;84.95;100515.81;5033131;28;20079;-65
2021/07/23 06:56:52;;;;;;;19.33;12.52;;;;;;;20.36;83.45;100514.63;5032530;28;20524;-66
2021/07/23 06:59:36;;;;;;;23.17;13.15;;;;;;;20.42;82.82;100508.41;5032210;28;20051;-67
2021/07/23 07:02:20;;;;;;;19.45;11.30;;;;;;;20.51;81.79;100507.22;5032008;28;20187;-67
2021/07/23 07:05:04;;;;;;;20.35;11.30;;;;;;;20.61;81.95;100513.09;5018075;28;20057;-65
2021/07/23 07:07:48;;;;;;;22.58;11.38;;;;;;;20.73;81.90;100511.44;5033409;28;20056;-67
2021/07/23 07:10:32;;;;;;;16.65;10.98;;;;;;;20.83;80.04;100509.19;5032132;28;20133;-66
2021/07/23 07:13:16;;;;;;;19.90;11.93;;;;;;;20.82;79.98;100516.47;5032927;28;20044;-67
2021/07/23 07:16:02;;;;;;;21.42;11.48;;;;;;;20.95;80.43;100513.00;5032169;28;20405;-66
2021/07/23 07:18:45;;;;;;;20.05;11.55;;;;;;;20.96;79.01;100507.38;5033383;28;20055;-67
2021/07/23 07:21:29;;;;;;;20.95;11.88;;;;;;;20.99;79.07;100506.13;5035826;28;20048;-67
2021/07/23 07:24:14;;;;;;;;;;;;;;;21.01;79.28;100509.50;5037125;28;20141;-67
2021/07/23 07:26:58;;;;;;;22.95;12.02;;;;;;;21.13;77.58;100510.53;5036114;28;20285;-67
2021/07/23 07:29:42;;;;;;;18.35;11.27;;;;;;;21.24;77.09;100506.19;5021924;28;20128;-67
2021/07/23 07:32:26;;;;;;;16.98;11.07;;;;;;;21.35;77.84;100507.41;5036725;28;20099;-67
2021/07/23 07:35:10;;;;;;;18.70;9.93;;;;;;;21.46;76.35;100496.81;5035763;28;20064;-67
2021/07/23 07:37:54;;;;;;;14.73;10.57;;;;;;;21.52;75.57;100501.41;5021744;28;20410;-66
2021/07/23 07:40:39;;;;;;;18.90;10.88;;;;;;;21.61;76.34;100497.41;5035651;28;20052;-66
2021/07/23 07:43:23;;;;;;;14.18;9.93;;;;;;;21.67;74.66;100485.75;5035603;28;20045;-64
2021/07/23 07:46:07;;;;;;;14.00;9.57;;;;;;;21.81;74.49;100489.28;5035340;28;20532;-66
2021/07/23 07:48:51;;;;;;;18.52;10.85;;;;;;;21.91;74.07;100493.22;5036501;28;20410;-66
2021/07/23 07:51:34;;;;;;;16.63;10.25;;;;;;;21.96;73.39;100485.31;5035667;28;20048;-67
2021/07/23 07:54:18;;;;;;;22.40;9.95;;;;;;;22.03;71.02;100483.41;5035187;28;20426;-66
2021/07/23 07:57:07;;;;;;;16.17;9.38;;;;;;;22.15;72.84;100484.44;5035200;28;20048;-65
2021/07/23 07:59:50;;;;;;;16.58;10.73;;;;;;;22.26;71.95;100489.19;5036409;28;20052;-66
2021/07/23 08:02:34;;;;;;;17.85;9.98;;;;;;;22.35;72.29;100479.75;5036320;28;20091;-67
2021/07/23 08:05:18;;;;;;;12.27;9.35;;;;;;;22.49;71.16;100480.59;5036002;28;20064;-64
2021/07/23 08:08:04;;;;;;;17.17;10.00;;;;;;;22.59;67.92;100476.34;5036339;28;20044;-66
2021/07/23 08:10:47;;;;;;;16.02;9.93;;;;;;;22.68;68.39;100480.47;5036352;28;20556;-67
2021/07/23 08:13:31;;;;;;;;;;;;;;;22.80;67.57;100472.47;5036201;28;20099;-66
2021/07/23 08:16:15;;;;;;;15.63;9.37;;;;;;;22.89;67.46;100472.00;5034840;28;20404;-66
2021/07/23 08:19:00;;;;;;;;;;;;;;;22.94;67.44;100474.88;5021425;28;20147;-66
2021/07/23 08:21:44;;;;;;;15.23;9.50;;;;;;;23.06;64.97;100464.97;5034620;28;20294;-65
2021/07/23 08:24:28;;;;;;;19.20;10.43;;;;;;;23.21;64.74;100470.97;5035775;28;20083;-67
2021/07/23 08:27:13;;;;;;;15.35;8.52;;;;;;;23.32;63.45;100464.81;5034639;28;20048;-66
2021/07/23 08:29:58;;;;;;;12.57;9.15;;;;;;;23.39;62.48;100462.88;5034808;28;20047;-67
2021/07/23 08:32:48;;;;;;;13.70;9.38;;;;;;;23.48;60.79;100455.25;5033713;28;20052;-66
2021/07/23 08:35:32;;;;;;;11.88;9.15;;;;;;;23.54;61.43;100457.09;5035617;28;20517;-67
2021/07/23 08:38:17;;;;;;;14.65;9.20;;;;;;;23.69;61.24;100463.84;5020755;28;20094;-66
2021/07/23 08:41:02;;;;;;;14.77;8.90;;;;;;;23.80;61.15;100465.84;5034600;28;20048;-67
2021/07/23 08:43:46;;;;;;;13.75;8.95;;;;;;;23.82;61.03;100461.00;5034441;28;20136;-67
2021/07/23 08:46:31;;;;;;;15.18;9.77;;;;;;;;;;5034627;28;20072;-66
2021/07/23 08:49:16;;;;;;;11.52;9.05;;;;;;;24.03;60.22;100448.88;5035444;28;20146;-67
2021/07/23 08:52:00;;;;;;;11.00;8.77;;;;;;;24.17;62.25;100445.75;5034339;28;20470;-66
2021/07/23 08:54:44;;;;;;;11.73;8.88;;;;;;;24.25;60.86;100456.34;5056119;22;20075;-70
2021/07/23 08:57:28;;;;;;;14.60;9.80;;;;;;;24.43;60.80;100451.75;4994997;28;20053;-68
2021/07/23 09:00:14;;;;;;;16.27;9.88;;;;;;;24.52;59.86;100453.06;4981132;28;20197;-69
2021/07/23 09:03:00;;;;;;;11.07;8.30;;;;;;;24.63;59.75;100446.91;4994849;28;20085;-68
2021/07/23 09:05:45;;;;;;;12.95;9.20;;;;;;;24.76;59.22;100448.59;4990591;28;20100;-68
2021/07/23 09:08:44;;;;;;;14.65;9.82;;;;;;;24.89;57.87;100451.16;5014522;28;20052;-69
2021/07/23 09:11:28;;;;;;;11.30;8.93;;;;;;;25.08;57.39;100452.72;5000206;28;20044;-69
2021/07/23 09:14:13;;;;;;;13.07;8.88;;;;;;;25.23;58.79;100450.44;5015152;28;20057;-69
2021/07/23 09:16:57;;;;;;;11.63;9.35;;;;;;;25.36;54.66;100447.47;5013836;28;20044;-69
2021/07/23 09:19:42;;;;;;;13.30;8.80;;;;;;;25.45;52.81;100437.88;5014380;28;20045;-68
2021/07/23 09:22:41;;;;;;;13.43;8.65;;;;;;;25.54;53.87;100450.13;4999929;28;20069;-68
2021/07/23 09:25:35;;;;;;;14.02;8.73;;;;;;;25.72;54.47;100442.63;4999810;28;20096;-68
2021/07/23 09:28:29;;;;;;;12.15;8.93;;;;;;;25.88;53.45;100435.66;5000174;28;20055;-69
2021/07/23 09:31:21;;;;;;;14.15;8.93;;;;;;;26.08;52.01;100436.09;5013845;28;20518;-68
2021/07/23 09:34:06;;;;;;;13.00;8.70;;;;;;;26.21;51.89;100433.09;5013842;28;20057;-69
2021/07/23 09:37:08;;;;;;;11.18;8.48;;;;;;;26.40;51.53;100426.38;5013238;28;20132;-69
2021/07/23 09:39:57;;;;;;;12.45;8.35;;;;;;;26.62;50.95;100424.66;5013804;28;20165;-69
2021/07/23 09:42:41;;;;;;;14.85;8.82;;;;;;;26.81;49.36;100426.13;5000025;28;20458;-69
2021/07/23 09:45:28;;;;;;;;;;;;;;;26.84;49.65;100425.66;5000146;28;20053;-69
2021/07/23 09:48:13;;;;;;;14.02;9.57;;;;;;;27.06;49.08;100422.78;5013374;28;19921;-69
2021/07/23 09:50:59;;;;;;;15.73;8.25;;;;;;;27.01;47.69;100422.69;5013412;28;20141;-69
2021/07/23 09:53:43;;;;;;;12.15;8.27;;;;;;;27.31;47.66;100419.69;5013226;28;20053;-69
2021/07/23 09:56:27;;;;;;;14.35;9.18;;;;;;;27.63;46.00;100416.06;5013941;28;20121;-69
2021/07/23 09:59:41;;;;;;;13.85;8.35;;;;;;;27.78;45.65;100407.28;5013328;28;20501;-69
2021/07/23 10:02:27;;;;;;;10.68;8.70;;;;;;;28.10;44.57;100406.38;5013358;28;20482;-69
2021/07/23 10:05:13;;;;;;;13.95;9.27;;;;;;;28.39;44.38;100402.38;5013628;28;20059;-69
2021/07/23 10:08:05;;;;;;;11.07;8.95;;;;;;;28.77;43.08;100404.19;4999505;28;20514;-69
2021/07/23 10:10:52;;;;;;;13.68;8.45;;;;;;;29.00;43.02;100398.38;5013310;28;20129;-69
2021/07/23 10:13:40;;;;;;;13.13;8.80;;;;;;;29.18;41.99;100398.81;5014173;28;20187;-69
2021/07/23 10:16:24;;;;;;;11.75;8.43;;;;;;;29.39;40.76;100395.16;4999243;28;20057;-69
2021/07/23 10:19:08;;;;;;;13.80;9.25;;;;;;;29.82;40.55;100380.34;5014353;28;20053;-69
2021/07/23 10:21:56;;;;;;;12.60;9.05;;;;;;;30.36;38.93;100379.81;5014044;28;20096;-69
2021/07/23 10:24:41;;;;;;;12.77;8.50;;;;;;;30.84;37.33;100382.16;5013235;28;20180;-69
2021/07/23 10:27:26;;;;;;;12.88;9.00;;;;;;;31.74;34.46;100362.84;5013036;28;20057;-69
2021/07/23 10:30:40;;;;;;;11.57;9.15;;;;;;;33.17;33.07;100377.03;4999108;28;20075;-69
2021/07/23 10:33:50;;;;;;;12.77;8.60;;;;;;;34.60;30.41;100358.31;5008612;28;20041;-69
2021/07/23 10:36:34;;;;;;;13.13;8.60;;;;;;;35.12;29.00;100354.47;5013465;28;20084;-69
2021/07/23 10:39:19;;;;;;;9.75;8.75;;;;;;;37.15;26.72;100362.50;5013722;28;20209;-69
2021/07/23 10:42:09;;;;;;;9.73;8.18;;;;;;;38.53;25.43;100355.28;4998963;28;20434;-70
2021/07/23 10:44:53;;;;;;;11.18;9.20;;;;;;;38.97;24.02;100338.28;5013703;28;20107;-70
2021/07/23 10:47:41;;;;;;;10.68;8.10;;;;;;;40.13;23.01;100339.47;5012603;28;20063;-69
2021/07/23 10:50:25;;;;;;;10.57;9.48;;;;;;;40.52;21.95;100330.66;4999138;28;20048;-70
2021/07/23 10:53:24;;;;;;;11.30;9.40;;;;;;;40.59;21.78;100330.13;5013379;28;20117;-70
2021/07/23 10:56:08;;;;;;;12.27;8.70;;;;;;;41.26;21.34;100320.31;5013013;28;20160;-70
2021/07/23 10:58:52;;;;;;;13.45;9.43;;;;;;;40.85;21.10;100317.56;5012405;28;20048;-70
2021/07/23 11:01:50;;;;;;;13.48;10.00;;;;;;;41.77;21.16;100316.13;5013543;28;20095;-70
2021/07/23 11:04:34;;;;;;;11.48;8.90;;;;;;;42.11;20.26;100310.91;5012429;28;20128;-70
2021/07/23 11:07:25;;;;;;;11.38;8.70;;;;;;;42.66;18.91;100305.44;4998635;28;20079;-70
2021/07/23 11:10:11;;;;;;;9.68;8.68;;;;;;;41.96;20.60;100297.56;5012212;28;20044;-70
2021/07/23 11:12:55;;;;;;;11.95;9.18;;;;;;;42.50;20.18;100290.53;5012202;28;20052;-70
2021/07/23 11:15:39;;;;;;;11.95;9.45;;;;;;;42.48;19.91;100290.06;5013264;28;20414;-70
2021/07/23 11:18:23;;;;;;;11.48;9.27;;;;;;;43.06;19.63;100292.19;4998774;28;20583;-70
2021/07/23 11:21:07;;;;;;;10.88;8.98;;;;;;;42.87;18.88;100284.44;4998282;28;20091;-70
2021/07/23 11:23:52;;;;;;;14.10;9.23;;;;;;;42.51;18.91;100280.97;5012359;28;20160;-70
2021/07/23 11:26:37;;;;;;;13.60;9.68;;;;;;;42.56;17.73;100283.50;5012541;28;20056;-70
2021/07/23 11:29:31;;;;;;;10.40;9.27;;;;;;;42.66;17.35;100268.19;5012087;28;20518;-70
2021/07/23 11:32:17;;;;;;;12.13;9.68;;;;;;;43.28;17.91;100278.44;5011941;28;20076;-70
2021/07/23 11:35:08;;;;;;;11.52;9.45;;;;;;;44.10;16.65;100276.50;5012141;28;20052;-70
2021/07/23 11:37:53;;;;;;;10.95;9.85;;;;;;;43.92;16.59;100272.47;5011885;28;20053;-70
2021/07/23 11:40:37;;;;;;;13.02;9.68;;;;;;;44.20;16.64;100273.13;5013245;28;20049;-70
2021/07/23 11:43:22;;;;;;;11.57;9.43;;;;;;;44.37;16.58;100269.91;4998126;28;20411;-70
2021/07/23 11:46:16;;;;;;;11.70;9.43;;;;;;;44.83;16.87;100269.75;5012108;28;20518;-70
2021/07/23 11:49:01;;;;;;;13.98;9.60;;;;;;;43.99;16.38;100264.19;5012131;28;20049;-70
2021/07/23 11:51:47;;;;;;;14.07;9.63;;;;;;;44.49;16.11;100255.75;5011722;28;20045;-70
2021/07/23 11:54:31;;;;;;;13.27;9.68;;;;;;;43.66;15.93;100258.16;5012944;28;20061;-70
2021/07/23 11:57:16;;;;;;;11.27;9.85;;;;;;;43.80;15.97;100250.91;4998224;28;20427;-70
2021/07/23 12:00:00;;;;;;;10.30;9.02;;;;;;;44.19;16.21;100251.84;5012712;28;20065;-70
2021/07/23 12:02:43;;;;;;;10.80;9.75;;;;;;;43.38;16.61;100254.59;4998005;28;20041;-70
2021/07/23 12:05:28;;;;;;;10.02;9.13;;;;;;;44.35;15.81;100246.97;5011600;28;20048;-70
2021/07/23 12:08:12;;;;;;;10.57;9.30;;;;;;;44.59;16.17;100241.91;5015245;28;20045;-70
2021/07/23 12:11:00;;;;;;;11.00;9.25;;;;;;;44.48;15.86;100237.25;5015362;28;20080;-70
2021/07/23 12:13:44;;;;;;;15.27;10.70;;;;;;;44.84;15.81;100246.06;5002108;28;20057;-70
2021/07/23 12:16:28;;;;;;;11.60;10.50;;;;;;;45.19;15.90;100240.31;5015041;28;20072;-70
2021/07/23 12:19:17;;;;;;;11.00;9.95;;;;;;;45.40;14.92;100221.81;5015484;28;20044;-70
2021/07/23 12:22:10;;;;;;;10.93;9.75;;;;;;;45.35;15.04;100221.31;5014966;28;20119;-70
2021/07/23 12:24:53;;;;;;;10.60;9.60;;;;;;;45.30;15.62;100218.78;5014667;28;20049;-70
2021/07/23 12:27:37;;;;;;;10.20;9.30;;;;;;;44.90;15.40;100213.63;5014979;28;20104;-70
2021/07/23 12:30:32;;;;;;;13.30;9.85;;;;;;;43.84;16.75;100206.84;5015040;28;20133;-70
2021/07/23 12:33:30;;;;;;;12.38;9.85;;;;;;;43.90;16.78;100205.41;5014890;28;20522;-70
2021/07/23 12:36:23;;;;;;;11.10;10.00;;;;;;;42.85;17.40;100207.44;5001250;28;20095;-70